Time;durP1;ratioP1;P1;durP2;ratioP2;P2;SDS_P1;SDS_P2;PMS_P1;PMS_P2;Temp;Humidity;BMP_temperature;BMP_pressure;BME280_temperature;BME280_humidity;BME280_pressure;Samples;Min_cycle;Max_cycle;Signal;HPM_P1;HPM_P2
2020/12/15 00:00:31;;;;;;;13.40;8.60;;;5.20;99.90;;;;;;5081919;28;20283;-75
2020/12/15 00:02:56;;;;;;;12.37;8.50;;;5.20;99.90;;;;;;5088907;28;20650;-75
2020/12/15 00:05:22;;;;;;;13.13;8.70;;;5.10;99.90;;;;;;5086295;28;20191;-75
2020/12/15 00:07:47;;;;;;;17.23;9.37;;;5.10;99.90;;;;;;5082521;28;20290;-76
2020/12/15 00:10:13;;;;;;;12.30;8.67;;;5.10;99.90;;;;;;5082378;28;20568;-75
2020/12/15 00:12:38;;;;;;;10.30;8.47;;;5.10;99.90;;;;;;5090553;28;20575;-75
2020/12/15 00:15:04;;;;;;;13.70;10.13;;;5.10;99.90;;;;;;5084921;28;20607;-75
2020/12/15 00:17:29;;;;;;;14.37;9.03;;;5.10;99.90;;;;;;5088448;28;20782;-75
2020/12/15 00:19:55;;;;;;;14.57;8.77;;;5.10;99.90;;;;;;5084657;28;20261;-75
2020/12/15 00:22:20;;;;;;;18.03;8.43;;;5.10;99.90;;;;;;5083333;28;20185;-75
2020/12/15 00:24:46;;;;;;;14.87;7.73;;;5.10;99.90;;;;;;5085645;28;20657;-75
2020/12/15 00:27:12;;;;;;;12.30;8.87;;;5.10;99.90;;;;;;5081972;28;20283;-75
2020/12/15 00:29:37;;;;;;;9.43;6.90;;;5.20;99.90;;;;;;5082376;28;20180;-76
2020/12/15 00:32:03;;;;;;;9.13;8.00;;;5.20;99.90;;;;;;5083728;28;20210;-75
2020/12/15 00:34:29;;;;;;;11.90;7.70;;;5.20;99.90;;;;;;5083934;28;20277;-75
2020/12/15 00:36:58;;;;;;;11.60;8.70;;;5.20;99.90;;;;;;5081261;28;20529;-75
2020/12/15 00:39:24;;;;;;;17.07;8.83;;;5.20;99.90;;;;;;5081707;28;20199;-75
2020/12/15 00:41:49;;;;;;;11.77;8.10;;;5.30;99.90;;;;;;5084611;28;20441;-75
2020/12/15 00:44:15;;;;;;;15.00;9.43;;;5.40;99.90;;;;;;5083017;28;20195;-75
2020/12/15 00:46:41;;;;;;;18.80;10.30;;;5.40;99.90;;;;;;5085572;28;21647;-75
2020/12/15 00:49:06;;;;;;;14.33;8.63;;;5.50;99.90;;;;;;5083507;28;20466;-75
2020/12/15 00:51:32;;;;;;;18.93;9.37;;;5.50;99.90;;;;;;5081932;28;20204;-75
2020/12/15 00:53:57;;;;;;;12.00;8.00;;;5.50;99.90;;;;;;5082139;28;20195;-75
2020/12/15 00:56:23;;;;;;;14.33;8.60;;;5.50;99.90;;;;;;5080961;28;20531;-75
2020/12/15 00:58:48;;;;;;;12.20;8.67;;;5.60;99.90;;;;;;5084129;28;20191;-75
2020/12/15 01:01:15;;;;;;;17.40;9.70;;;5.60;99.90;;;;;;5081985;28;20212;-76
2020/12/15 01:03:40;;;;;;;11.87;8.30;;;5.60;99.90;;;;;;5084987;28;20209;-75
2020/12/15 01:06:07;;;;;;;11.90;8.50;;;5.70;99.90;;;;;;5081169;28;20905;-75
2020/12/15 01:08:32;;;;;;;10.33;7.70;;;5.70;99.90;;;;;;5084215;28;20300;-75
2020/12/15 01:10:58;;;;;;;9.40;7.53;;;5.70;99.90;;;;;;5081195;28;20528;-76
2020/12/15 01:13:23;;;;;;;12.30;8.43;;;5.70;99.90;;;;;;5081501;28;20650;-76
2020/12/15 01:15:49;;;;;;;14.20;9.00;;;5.70;99.90;;;;;;5084028;28;20708;-76
2020/12/15 01:18:14;;;;;;;12.40;6.90;;;5.70;99.90;;;;;;5079401;28;20237;-76
2020/12/15 01:20:40;;;;;;;8.73;7.17;;;5.70;99.90;;;;;;5083004;28;20577;-76
2020/12/15 01:23:05;;;;;;;9.63;7.67;;;5.70;99.90;;;;;;5080380;28;20184;-76
2020/12/15 01:25:31;;;;;;;11.53;8.17;;;5.80;99.90;;;;;;5081682;28;20323;-76
2020/12/15 01:27:57;;;;;;;8.93;7.13;;;5.80;99.90;;;;;;5082881;28;20195;-76
2020/12/15 01:30:23;;;;;;;9.40;7.20;;;5.80;99.90;;;;;;5081834;28;20444;-76
2020/12/15 01:32:48;;;;;;;8.53;6.53;;;5.80;99.90;;;;;;5081490;28;20526;-76
2020/12/15 01:35:14;;;;;;;12.20;7.57;;;5.80;99.90;;;;;;5082552;28;20230;-76
2020/12/15 01:37:40;;;;;;;13.80;7.70;;;5.80;99.90;;;;;;5080848;28;20275;-76
2020/12/15 01:40:05;;;;;;;10.43;7.50;;;5.80;99.90;;;;;;5081566;28;20234;-76
2020/12/15 01:42:31;;;;;;;12.10;7.90;;;5.80;99.90;;;;;;5083330;28;20208;-76
2020/12/15 01:44:56;;;;;;;9.47;7.67;;;5.70;99.90;;;;;;5080569;28;20182;-76
2020/12/15 01:47:22;;;;;;;10.20;7.90;;;5.80;99.90;;;;;;5083322;28;20686;-76
2020/12/15 01:49:48;;;;;;;12.93;8.00;;;5.80;99.90;;;;;;5082621;28;20187;-76
2020/12/15 01:52:15;;;;;;;11.13;7.40;;;5.70;99.90;;;;;;5085121;28;20451;-75
2020/12/15 01:54:41;;;;;;;9.87;7.87;;;5.70;99.90;;;;;;5082463;28;20795;-76
2020/12/15 01:57:08;;;;;;;10.93;7.00;;;5.70;99.90;;;;;;5079066;28;20423;-75
2020/12/15 01:59:33;;;;;;;10.70;7.00;;;5.70;99.90;;;;;;5079412;28;20974;-75
2020/12/15 02:01:59;;;;;;;9.47;6.77;;;5.60;99.90;;;;;;5081041;28;20823;-75
2020/12/15 02:04:24;;;;;;;7.40;6.60;;;5.60;99.90;;;;;;5080596;28;20189;-76
2020/12/15 02:06:51;;;;;;;9.63;7.50;;;5.70;99.90;;;;;;5082064;28;20185;-76
2020/12/15 02:09:18;;;;;;;7.70;6.30;;;5.60;99.90;;;;;;5080201;28;20552;-76
2020/12/15 02:11:44;;;;;;;9.07;7.00;;;5.60;99.90;;;;;;5083150;28;20479;-75
2020/12/15 02:14:10;;;;;;;13.67;7.00;;;5.60;99.90;;;;;;5081220;28;20438;-76
2020/12/15 02:16:39;;;;;;;8.27;5.90;;;5.60;99.90;;;;;;5081021;28;20470;-76
2020/12/15 02:19:04;;;;;;;8.60;6.50;;;5.60;99.90;;;;;;5076425;28;20988;-75
2020/12/15 02:21:30;;;;;;;6.53;5.53;;;5.60;99.90;;;;;;5082077;28;20461;-75
2020/12/15 02:23:55;;;;;;;9.37;6.77;;;5.60;99.90;;;;;;5079721;28;20189;-75
2020/12/15 02:26:21;;;;;;;8.47;6.17;;;5.70;99.90;;;;;;5082637;28;20199;-75
2020/12/15 02:28:46;;;;;;;8.83;6.20;;;5.60;99.90;;;;;;5080157;28;20789;-76
2020/12/15 02:31:12;;;;;;;8.10;6.27;;;5.60;99.90;;;;;;5080562;28;20204;-76
2020/12/15 02:33:37;;;;;;;8.33;6.30;;;5.70;99.90;;;;;;5085703;28;20183;-76
2020/12/15 02:36:03;;;;;;;7.47;5.40;;;5.70;99.90;;;;;;5080559;28;20185;-76
2020/12/15 02:38:28;;;;;;;14.90;6.23;;;5.70;99.90;;;;;;5079908;28;20611;-76
2020/12/15 02:40:54;;;;;;;10.13;6.83;;;5.70;99.90;;;;;;5079238;28;20227;-76
2020/12/15 02:43:19;;;;;;;5.87;5.03;;;5.70;99.90;;;;;;5078060;28;20688;-76
2020/12/15 02:45:45;;;;;;;9.00;6.00;;;5.70;99.90;;;;;;5079939;28;20241;-76
2020/12/15 02:48:10;;;;;;;10.63;6.70;;;5.80;99.90;;;;;;5080721;28;20203;-75
2020/12/15 02:50:36;;;;;;;9.20;6.63;;;5.80;99.90;;;;;;5080963;28;20202;-76
2020/12/15 02:53:02;;;;;;;9.73;6.80;;;5.90;99.90;;;;;;5081833;28;20219;-75
2020/12/15 02:55:27;;;;;;;8.97;7.23;;;5.90;99.90;;;;;;5084000;28;20188;-76
2020/12/15 02:57:53;;;;;;;9.50;8.13;;;5.90;99.90;;;;;;5080458;28;20181;-75
2020/12/15 03:00:20;;;;;;;11.63;7.00;;;6.00;99.90;;;;;;5080497;28;20197;-75
2020/12/15 03:02:48;;;;;;;8.00;6.87;;;6.00;99.90;;;;;;5079484;28;20180;-75
2020/12/15 03:05:15;;;;;;;11.27;6.63;;;6.10;99.90;;;;;;5080045;28;20915;-76
2020/12/15 03:07:41;;;;;;;11.37;7.43;;;6.00;99.90;;;;;;5081144;28;20455;-75
2020/12/15 03:10:07;;;;;;;10.97;7.77;;;6.10;99.90;;;;;;5079819;28;20422;-75
2020/12/15 03:12:33;;;;;;;9.17;7.13;;;6.10;99.90;;;;;;5081435;28;20435;-76
2020/12/15 03:14:58;;;;;;;15.67;8.30;;;6.20;99.90;;;;;;5078250;28;20420;-76
2020/12/15 03:17:24;;;;;;;10.40;8.90;;;6.10;99.90;;;;;;5078022;28;20192;-75
2020/12/15 03:19:49;;;;;;;11.27;7.27;;;6.10;99.90;;;;;;5081036;28;20180;-75
2020/12/15 03:22:15;;;;;;;7.90;7.10;;;6.20;99.90;;;;;;5079405;28;20902;-75
2020/12/15 03:24:41;;;;;;;12.10;7.80;;;6.20;99.90;;;;;;5081517;28;20609;-75
2020/12/15 03:27:07;;;;;;;5.97;5.20;;;6.20;99.90;;;;;;5082634;28;20176;-75
2020/12/15 03:29:33;;;;;;;6.73;5.53;;;6.30;99.90;;;;;;5079003;28;20442;-75
2020/12/15 03:31:58;;;;;;;5.83;5.23;;;6.30;99.90;;;;;;5080532;28;20188;-76
2020/12/15 03:34:24;;;;;;;9.70;6.43;;;6.30;99.90;;;;;;5078506;28;20179;-75
2020/12/15 03:36:49;;;;;;;10.37;5.63;;;6.30;99.90;;;;;;5086733;28;20172;-75
2020/12/15 03:39:15;;;;;;;9.83;6.20;;;6.30;99.90;;;;;;5081293;28;20207;-75
2020/12/15 03:41:41;;;;;;;8.70;5.97;;;6.30;99.90;;;;;;5085919;28;20209;-75
2020/12/15 03:44:06;;;;;;;10.17;6.90;;;6.30;99.90;;;;;;5083455;28;20189;-75
2020/12/15 03:46:32;;;;;;;18.27;7.40;;;6.30;99.90;;;;;;5084433;28;20654;-75
2020/12/15 03:48:57;;;;;;;9.20;7.33;;;6.30;99.90;;;;;;5083429;28;20201;-76
2020/12/15 03:51:23;;;;;;;9.43;8.53;;;6.30;99.90;;;;;;5080468;28;20199;-76
2020/12/15 03:53:48;;;;;;;9.80;7.73;;;6.30;99.90;;;;;;5084373;28;20247;-75
2020/12/15 03:56:14;;;;;;;11.73;8.73;;;6.30;99.90;;;;;;5083748;28;20230;-75
2020/12/15 03:58:40;;;;;;;10.63;7.93;;;6.30;99.90;;;;;;5083073;28;20187;-75
2020/12/15 04:01:06;;;;;;;15.37;9.00;;;6.30;99.90;;;;;;5083528;28;20223;-76
2020/12/15 04:03:31;;;;;;;12.20;8.53;;;6.30;99.90;;;;;;5087093;28;21034;-76
2020/12/15 04:05:58;;;;;;;14.17;9.80;;;6.30;99.90;;;;;;5084502;28;20541;-76
2020/12/15 04:08:25;;;;;;;12.90;9.07;;;6.30;99.90;;;;;;5085007;28;20216;-75
2020/12/15 04:10:51;;;;;;;12.47;9.67;;;6.20;99.90;;;;;;5081735;28;20436;-76
2020/12/15 04:13:17;;;;;;;13.03;9.17;;;6.20;99.90;;;;;;5086030;28;20507;-75
2020/12/15 04:15:42;;;;;;;15.20;9.13;;;6.20;99.90;;;;;;5083545;28;20537;-75
2020/12/15 04:18:08;;;;;;;12.57;9.00;;;6.20;99.90;;;;;;5084012;28;20282;-75
2020/12/15 04:20:34;;;;;;;12.90;9.10;;;6.20;99.90;;;;;;5089527;28;20200;-76
2020/12/15 04:22:59;;;;;;;13.67;7.67;;;6.20;99.90;;;;;;5082043;28;20211;-76
2020/12/15 04:25:25;;;;;;;14.37;9.20;;;6.20;99.90;;;;;;5084463;28;20199;-75
2020/12/15 04:27:50;;;;;;;14.43;9.43;;;6.20;99.90;;;;;;5080334;28;20195;-75
2020/12/15 04:30:16;;;;;;;13.40;9.63;;;6.10;99.90;;;;;;5079434;28;20198;-75
2020/12/15 04:32:42;;;;;;;12.70;8.67;;;6.20;99.90;;;;;;5081027;28;20187;-76
2020/12/15 04:35:07;;;;;;;12.13;8.43;;;6.20;99.90;;;;;;5080180;28;20184;-75
2020/12/15 04:37:33;;;;;;;13.20;9.97;;;6.20;99.90;;;;;;5083460;28;20204;-76
2020/12/15 04:39:58;;;;;;;13.27;10.00;;;6.20;99.90;;;;;;5083317;28;20180;-76
2020/12/15 04:42:24;;;;;;;10.87;8.80;;;6.20;99.90;;;;;;5084509;28;20190;-75
2020/12/15 04:44:51;;;;;;;11.13;8.67;;;6.20;99.90;;;;;;5081071;28;20185;-76
2020/12/15 04:47:27;;;;;;;11.33;9.10;;;6.20;99.90;;;;;;5085083;28;20184;-75
2020/12/15 04:50:14;;;;;;;13.37;9.00;;;6.10;99.90;;;;;;5085773;28;20426;-75
2020/12/15 04:52:56;;;;;;;10.30;8.10;;;6.10;99.90;;;;;;5083929;28;20425;-75
2020/12/15 04:55:23;;;;;;;10.50;7.77;;;6.10;99.90;;;;;;5079965;28;20852;-76
2020/12/15 04:57:48;;;;;;;13.07;8.00;;;6.20;99.90;;;;;;5080537;28;20448;-74
2020/12/15 05:00:16;;;;;;;11.57;9.10;;;6.20;99.90;;;;;;5082253;28;20458;-75
2020/12/15 05:02:44;;;;;;;11.90;8.83;;;6.20;99.90;;;;;;5081854;28;20184;-76
2020/12/15 05:05:09;;;;;;;16.90;11.07;;;6.20;99.90;;;;;;5081331;28;20530;-75
2020/12/15 05:07:40;;;;;;;13.97;9.13;;;6.20;99.90;;;;;;5081136;28;20590;-75
2020/12/15 05:10:06;;;;;;;11.33;8.40;;;6.10;99.90;;;;;;5083399;28;20435;-75
2020/12/15 05:12:32;;;;;;;11.03;8.03;;;6.10;99.90;;;;;;5082254;28;20423;-75
2020/12/15 05:14:58;;;;;;;16.67;9.00;;;6.10;99.90;;;;;;5079962;28;20915;-76
2020/12/15 05:17:32;;;;;;;9.80;8.57;;;6.10;99.90;;;;;;5087938;28;20190;-75
2020/12/15 05:20:02;;;;;;;11.20;8.47;;;6.10;99.90;;;;;;5085527;28;20175;-76
2020/12/15 05:22:57;;;;;;;13.33;8.77;;;6.10;99.90;;;;;;5083328;28;20465;-76
2020/12/15 05:25:28;;;;;;;17.73;8.47;;;6.10;99.90;;;;;;5072114;28;20560;-75
2020/12/15 05:27:55;;;;;;;9.40;8.10;;;6.10;99.90;;;;;;5082788;28;20809;-75
2020/12/15 05:30:21;;;;;;;16.57;8.80;;;6.10;99.90;;;;;;5082565;28;20441;-75
2020/12/15 05:33:00;;;;;;;9.63;7.40;;;6.20;99.90;;;;;;5080924;28;20437;-76
2020/12/15 05:35:29;;;;;;;14.57;8.30;;;6.20;99.90;;;;;;5082607;28;20233;-75
2020/12/15 05:37:56;;;;;;;10.30;7.47;;;6.30;99.90;;;;;;5081164;28;20425;-75
2020/12/15 05:40:22;;;;;;;15.43;7.53;;;6.30;99.90;;;;;;5086324;28;20602;-75
2020/12/15 05:42:58;;;;;;;13.73;7.90;;;6.30;99.90;;;;;;5078540;28;20510;-75
2020/12/15 05:45:25;;;;;;;14.40;10.30;;;6.30;99.90;;;;;;5081589;28;20179;-76
2020/12/15 05:48:00;;;;;;;11.03;7.73;;;6.30;99.90;;;;;;5079590;28;20458;-75
2020/12/15 05:50:26;;;;;;;16.83;8.93;;;6.30;99.90;;;;;;5078737;28;21235;-76
2020/12/15 05:53:00;;;;;;;10.77;7.30;;;6.30;99.90;;;;;;5080601;28;20515;-76
2020/12/15 05:55:26;;;;;;;10.40;7.20;;;6.30;99.90;;;;;;5079410;28;20222;-76
2020/12/15 05:57:53;;;;;;;11.17;8.67;;;6.40;99.90;;;;;;5082112;28;20430;-76
2020/12/15 06:00:18;;;;;;;10.20;7.63;;;6.40;99.90;;;;;;5081967;28;20530;-72
2020/12/15 06:02:55;;;;;;;15.20;8.60;;;6.40;99.90;;;;;;5081097;28;20496;-72
2020/12/15 06:05:24;;;;;;;11.50;8.07;;;6.40;99.90;;;;;;5088430;28;20194;-72
2020/12/15 06:07:52;;;;;;;12.67;9.27;;;6.50;99.90;;;;;;5081895;28;20468;-72
2020/12/15 06:10:18;;;;;;;15.87;8.73;;;6.50;99.90;;;;;;5084627;28;20511;-73
2020/12/15 06:12:47;;;;;;;18.90;9.50;;;6.50;99.90;;;;;;5085776;28;20448;-72
2020/12/15 06:15:12;;;;;;;12.47;9.73;;;6.50;99.90;;;;;;5080647;28;20188;-73
2020/12/15 06:17:38;;;;;;;13.93;7.90;;;6.60;99.90;;;;;;5081403;28;20444;-73
2020/12/15 06:20:03;;;;;;;12.87;8.70;;;6.60;99.90;;;;;;5086824;28;20188;-72
2020/12/15 06:22:32;;;;;;;9.57;7.60;;;6.70;99.90;;;;;;5086409;28;20196;-72
2020/12/15 06:25:00;;;;;;;14.47;8.83;;;6.70;99.90;;;;;;5083988;28;20662;-73
2020/12/15 06:27:34;;;;;;;12.63;9.63;;;6.70;99.90;;;;;;5079914;28;20444;-72
2020/12/15 06:30:00;;;;;;;15.37;9.20;;;6.70;99.90;;;;;;5081088;28;20420;-73
2020/12/15 06:32:26;;;;;;;10.27;8.10;;;6.70;99.90;;;;;;5083133;28;20438;-72
2020/12/15 06:34:53;;;;;;;15.73;7.73;;;6.70;99.90;;;;;;5083666;28;20537;-75
2020/12/15 06:37:21;;;;;;;13.20;8.03;;;6.80;99.90;;;;;;5078871;28;20471;-74
2020/12/15 06:40:02;;;;;;;12.80;8.23;;;6.70;99.90;;;;;;5080758;28;20758;-75
2020/12/15 06:42:28;;;;;;;14.40;9.03;;;6.80;99.90;;;;;;5079823;28;20440;-74
2020/12/15 06:45:05;;;;;;;11.10;7.80;;;6.70;99.90;;;;;;5078345;28;20462;-73
2020/12/15 06:47:31;;;;;;;10.83;7.70;;;6.80;99.90;;;;;;5081803;28;20205;-75
2020/12/15 06:50:08;;;;;;;11.70;8.13;;;6.70;99.90;;;;;;5080995;28;20424;-75
2020/12/15 06:52:34;;;;;;;11.00;8.17;;;6.70;99.90;;;;;;5084196;28;20430;-75
2020/12/15 06:54:59;;;;;;;13.27;8.70;;;6.60;99.90;;;;;;5077174;28;20482;-74
2020/12/15 06:57:35;;;;;;;14.50;7.70;;;6.60;99.90;;;;;;5082170;28;20192;-75
2020/12/15 07:00:12;;;;;;;12.50;8.43;;;6.60;99.90;;;;;;5078128;28;20208;-75
2020/12/15 07:02:43;;;;;;;13.50;9.07;;;6.60;99.90;;;;;;5080804;28;20467;-75
2020/12/15 07:05:26;;;;;;;13.13;8.10;;;6.60;99.90;;;;;;5081924;28;20974;-75
2020/12/15 07:07:56;;;;;;;13.00;8.70;;;6.60;99.90;;;;;;5074199;28;20454;-75
2020/12/15 07:10:25;;;;;;;18.17;8.50;;;6.60;99.90;;;;;;5076191;28;20948;-75
2020/12/15 07:12:51;;;;;;;12.33;7.50;;;6.60;99.90;;;;;;5104655;28;20689;-75
2020/12/15 07:15:18;;;;;;;19.00;11.73;;;6.60;99.90;;;;;;5081638;28;20760;-75
2020/12/15 07:17:46;;;;;;;13.43;8.83;;;6.50;99.90;;;;;;5080832;28;20466;-75
2020/12/15 07:20:13;;;;;;;11.47;8.63;;;6.60;99.90;;;;;;5086664;28;21103;-76
2020/12/15 07:22:38;;;;;;;13.83;8.13;;;6.60;99.90;;;;;;5086084;28;20425;-75
2020/12/15 07:25:05;;;;;;;15.10;8.37;;;6.60;99.90;;;;;;5084190;28;20896;-75
2020/12/15 07:27:32;;;;;;;12.70;7.90;;;6.60;99.90;;;;;;5086669;28;20200;-75
2020/12/15 07:29:58;;;;;;;21.00;8.53;;;6.60;99.90;;;;;;5080270;28;20432;-75
2020/12/15 07:32:25;;;;;;;11.20;7.70;;;6.60;99.90;;;;;;5085748;28;20423;-75
2020/12/15 07:35:00;;;;;;;9.10;7.70;;;6.60;99.90;;;;;;5085778;28;20790;-76
2020/12/15 07:37:26;;;;;;;11.47;8.13;;;6.70;99.90;;;;;;5082802;28;20426;-75
2020/12/15 07:39:54;;;;;;;13.57;8.13;;;6.70;99.90;;;;;;5085549;28;20424;-75
2020/12/15 07:42:19;;;;;;;11.33;8.37;;;6.80;99.90;;;;;;5081343;28;20422;-75
2020/12/15 07:44:45;;;;;;;11.03;7.70;;;6.80;99.90;;;;;;5085030;28;20790;-75
2020/12/15 07:47:10;;;;;;;11.27;7.80;;;6.70;99.90;;;;;;5081725;28;20195;-75
2020/12/15 07:49:36;;;;;;;13.53;9.07;;;6.80;99.90;;;;;;5090694;28;20182;-75
2020/12/15 07:52:02;;;;;;;12.13;8.10;;;6.80;99.90;;;;;;5083903;28;20201;-75
2020/12/15 07:54:27;;;;;;;13.93;8.10;;;6.80;99.90;;;;;;5084708;28;20223;-75
2020/12/15 07:56:53;;;;;;;12.53;7.30;;;6.70;99.90;;;;;;5081868;28;20170;-75
2020/12/15 07:59:20;;;;;;;15.47;7.80;;;6.70;99.90;;;;;;5082254;28;20186;-75
2020/12/15 08:01:45;;;;;;;11.20;7.70;;;6.80;99.90;;;;;;5085353;28;20474;-75
2020/12/15 08:04:13;;;;;;;13.23;8.23;;;6.80;99.90;;;;;;5082541;28;20458;-75
2020/12/15 08:06:44;;;;;;;13.67;8.17;;;6.80;99.90;;;;;;5085317;28;20568;-75
2020/12/15 08:09:13;;;;;;;10.47;8.50;;;6.80;99.90;;;;;;5082501;28;20469;-75
2020/12/15 08:11:47;;;;;;;11.20;8.30;;;6.80;99.90;;;;;;5089060;28;20459;-75
2020/12/15 08:14:14;;;;;;;10.50;8.30;;;6.90;99.90;;;;;;5085082;28;20438;-75
2020/12/15 08:16:42;;;;;;;15.10;9.00;;;7.00;99.90;;;;;;5080445;28;20442;-74
2020/12/15 08:19:09;;;;;;;21.13;9.30;;;7.00;99.90;;;;;;5086060;28;20515;-75
2020/12/15 08:21:43;;;;;;;14.47;9.00;;;7.10;99.90;;;;;;5082345;28;20474;-75
2020/12/15 08:24:10;;;;;;;14.70;8.70;;;7.10;99.90;;;;;;5083505;28;20923;-75
2020/12/15 08:26:37;;;;;;;17.27;9.63;;;7.20;99.90;;;;;;5086066;28;20449;-75
2020/12/15 08:29:07;;;;;;;10.33;8.60;;;7.20;99.90;;;;;;5082391;28;20446;-75
2020/12/15 08:31:37;;;;;;;21.83;8.83;;;7.20;99.90;;;;;;5082959;28;20788;-75
2020/12/15 08:34:20;;;;;;;14.93;8.30;;;7.20;99.90;;;;;;5086493;28;20435;-75
2020/12/15 08:36:53;;;;;;;12.57;8.27;;;7.20;99.90;;;;;;5084151;28;20772;-75
2020/12/15 08:39:24;;;;;;;14.60;7.87;;;7.30;99.90;;;;;;5081748;28;20508;-76
2020/12/15 08:41:55;;;;;;;12.80;8.97;;;7.30;99.90;;;;;;5079999;28;20439;-75
2020/12/15 08:44:21;;;;;;;14.07;9.43;;;7.30;99.90;;;;;;5080891;28;20461;-75
2020/12/15 08:46:50;;;;;;;17.97;8.67;;;7.40;99.90;;;;;;5081629;28;20780;-75
2020/12/15 08:49:17;;;;;;;11.33;8.00;;;7.40;99.90;;;;;;5083729;28;20588;-75
2020/12/15 08:51:52;;;;;;;21.40;9.40;;;7.40;99.90;;;;;;5083250;28;20435;-75
2020/12/15 08:54:19;;;;;;;13.53;7.57;;;7.40;99.90;;;;;;5080812;28;20472;-75
2020/12/15 08:56:45;;;;;;;13.30;8.23;;;7.40;99.90;;;;;;5080838;28;20515;-75
2020/12/15 08:59:12;;;;;;;20.93;9.07;;;7.40;99.90;;;;;;5081266;28;20484;-74
2020/12/15 09:01:38;;;;;;;18.07;8.37;;;7.30;99.90;;;;;;5081281;28;20201;-75
2020/12/15 09:04:03;;;;;;;11.83;9.53;;;7.30;99.90;;;;;;5085310;28;20439;-75
2020/12/15 09:06:37;;;;;;;20.30;9.40;;;7.40;99.90;;;;;;5079910;28;20492;-75
2020/12/15 09:09:04;;;;;;;14.23;9.13;;;7.40;99.90;;;;;;5082624;28;20203;-76
2020/12/15 09:11:30;;;;;;;11.63;7.43;;;7.40;99.90;;;;;;5082590;28;20928;-75
2020/12/15 09:13:57;;;;;;;15.63;8.70;;;7.40;99.90;;;;;;5083888;28;20431;-75
2020/12/15 09:16:28;;;;;;;10.40;8.20;;;7.40;99.90;;;;;;5080126;28;20181;-75
2020/12/15 09:18:54;;;;;;;17.23;8.13;;;7.40;99.90;;;;;;5086229;28;20551;-75
2020/12/15 09:21:20;;;;;;;10.70;7.53;;;7.40;99.90;;;;;;5080263;28;21012;-74
2020/12/15 09:23:50;;;;;;;11.27;8.73;;;7.40;99.90;;;;;;5083233;28;20176;-75
2020/12/15 09:26:16;;;;;;;13.00;9.20;;;7.50;99.90;;;;;;5083052;28;20176;-75
2020/12/15 09:28:42;;;;;;;22.17;7.97;;;7.50;99.90;;;;;;5081825;28;20535;-75
2020/12/15 09:31:11;;;;;;;16.53;8.40;;;7.50;99.90;;;;;;5080265;28;20433;-76
2020/12/15 09:33:37;;;;;;;17.43;8.60;;;7.50;99.90;;;;;;5083830;28;20558;-75
2020/12/15 09:36:03;;;;;;;11.60;7.90;;;7.50;99.90;;;;;;5080316;28;20439;-75
2020/12/15 09:38:28;;;;;;;10.40;7.20;;;7.50;99.90;;;;;;5082046;28;20650;-75
2020/12/15 09:40:54;;;;;;;12.23;8.57;;;7.50;99.90;;;;;;5079653;28;20729;-75
2020/12/15 09:43:19;;;;;;;18.03;8.47;;;7.50;99.90;;;;;;5081736;28;20229;-75
2020/12/15 09:45:45;;;;;;;14.57;7.83;;;7.50;99.90;;;;;;5079173;28;20174;-74
2020/12/15 09:48:10;;;;;;;13.80;8.40;;;7.60;99.90;;;;;;5080338;28;20716;-76
2020/12/15 09:50:37;;;;;;;12.83;9.30;;;7.60;99.90;;;;;;5081493;28;20466;-75
2020/12/15 09:53:03;;;;;;;12.30;7.83;;;7.60;99.90;;;;;;5079593;28;20184;-75
2020/12/15 09:55:28;;;;;;;13.27;8.23;;;7.60;99.90;;;;;;5080460;28;20791;-74
2020/12/15 09:57:54;;;;;;;14.20;9.23;;;7.60;99.90;;;;;;5080896;28;20661;-74
2020/12/15 10:00:19;;;;;;;13.07;8.47;;;7.70;99.90;;;;;;5083187;28;20199;-75
2020/12/15 10:02:45;;;;;;;13.70;7.53;;;7.70;99.90;;;;;;5080372;28;20177;-75
2020/12/15 10:05:10;;;;;;;14.87;8.20;;;7.80;99.90;;;;;;5083841;28;20187;-75
2020/12/15 10:07:38;;;;;;;18.37;9.00;;;7.80;99.90;;;;;;5081015;28;20197;-75
2020/12/15 10:10:04;;;;;;;12.70;7.47;;;7.80;99.90;;;;;;5081156;28;20724;-75
2020/12/15 10:12:30;;;;;;;18.40;8.83;;;7.80;99.90;;;;;;5080394;28;20416;-74
2020/12/15 10:14:55;;;;;;;17.20;9.23;;;7.80;99.90;;;;;;5081391;28;20437;-75
2020/12/15 10:17:21;;;;;;;12.33;8.03;;;7.90;99.90;;;;;;5082071;28;20361;-75
2020/12/15 10:19:46;;;;;;;11.40;8.07;;;8.00;99.90;;;;;;5084556;28;20257;-76
2020/12/15 10:22:12;;;;;;;12.20;8.93;;;8.00;99.90;;;;;;5082171;28;20751;-75
2020/12/15 10:24:37;;;;;;;17.87;9.40;;;8.00;99.90;;;;;;5079256;28;20179;-75
2020/12/15 10:27:03;;;;;;;14.33;7.53;;;8.10;99.90;;;;;;5079439;28;20175;-75
2020/12/15 10:29:30;;;;;;;15.07;8.37;;;8.10;99.90;;;;;;5079445;28;20301;-75
2020/12/15 10:31:56;;;;;;;21.63;8.33;;;8.20;99.90;;;;;;5080549;28;20202;-75
2020/12/15 10:34:22;;;;;;;15.23;7.77;;;8.30;99.90;;;;;;5096671;28;20448;-75
2020/12/15 10:36:49;;;;;;;12.77;7.87;;;8.40;99.90;;;;;;5077806;28;20415;-75
2020/12/15 10:39:14;;;;;;;10.33;8.70;;;8.40;99.90;;;;;;5082002;28;20657;-75
2020/12/15 10:41:41;;;;;;;10.70;7.77;;;8.50;99.90;;;;;;5078736;28;20458;-75
2020/12/15 10:44:14;;;;;;;15.17;8.63;;;8.60;99.90;;;;;;5080292;28;20182;-75
2020/12/15 10:46:40;;;;;;;12.00;8.60;;;8.60;99.90;;;;;;5081256;28;20433;-75
2020/12/15 10:49:05;;;;;;;13.70;8.73;;;8.60;99.90;;;;;;5081414;28;20464;-75
2020/12/15 10:51:31;;;;;;;13.03;8.73;;;8.60;99.90;;;;;;5085613;28;20517;-75
2020/12/15 10:53:56;;;;;;;14.27;8.93;;;8.70;99.90;;;;;;5083207;28;20191;-75
2020/12/15 10:56:25;;;;;;;10.90;8.43;;;8.70;99.90;;;;;;5086732;28;20211;-75
2020/12/15 10:58:51;;;;;;;12.37;8.90;;;8.80;99.90;;;;;;5082948;28;20183;-74
2020/12/15 11:01:16;;;;;;;14.70;8.90;;;8.80;99.90;;;;;;5084055;28;20467;-75
2020/12/15 11:03:42;;;;;;;12.50;8.63;;;8.90;99.90;;;;;;5084271;28;20278;-75
2020/12/15 11:06:07;;;;;;;14.43;8.60;;;8.90;99.90;;;;;;5083713;28;20558;-75
2020/12/15 11:08:33;;;;;;;12.33;7.97;;;8.90;99.90;;;;;;5084495;28;20642;-75
2020/12/15 11:10:58;;;;;;;12.90;7.87;;;9.00;99.90;;;;;;5083095;28;20642;-75
2020/12/15 11:13:24;;;;;;;11.60;8.67;;;9.00;99.90;;;;;;5083386;28;20182;-75
2020/12/15 11:15:50;;;;;;;21.80;9.47;;;9.10;99.90;;;;;;5082888;28;20176;-74
2020/12/15 11:18:16;;;;;;;19.70;8.73;;;9.10;99.90;;;;;;5086158;28;20191;-75
2020/12/15 11:20:41;;;;;;;16.87;8.60;;;9.10;99.90;;;;;;5086296;28;20512;-74
2020/12/15 11:23:07;;;;;;;17.83;9.10;;;9.10;99.90;;;;;;5083539;28;20443;-75
2020/12/15 11:25:33;;;;;;;11.83;7.80;;;9.00;99.90;;;;;;5083764;28;20183;-76
2020/12/15 11:27:58;;;;;;;18.20;7.90;;;9.00;99.90;;;;;;5083961;28;20296;-74
2020/12/15 11:30:24;;;;;;;18.43;9.23;;;9.00;99.90;;;;;;5084122;28;20209;-75
2020/12/15 11:32:49;;;;;;;23.43;9.47;;;8.90;99.90;;;;;;5082583;28;20208;-75
2020/12/15 11:35:15;;;;;;;15.10;9.43;;;8.90;99.90;;;;;;5083599;28;20180;-75
2020/12/15 11:37:43;;;;;;;16.07;9.30;;;8.90;99.90;;;;;;5084662;28;20546;-75
2020/12/15 11:40:10;;;;;;;15.80;8.77;;;8.90;99.90;;;;;;5082898;28;20173;-75
2020/12/15 11:42:36;;;;;;;15.23;10.37;;;8.90;99.90;;;;;;5082765;28;20451;-74
2020/12/15 11:45:02;;;;;;;20.73;10.60;;;8.80;99.90;;;;;;5084287;28;20971;-74
2020/12/15 11:47:28;;;;;;;16.93;10.40;;;8.80;99.90;;;;;;5084284;28;20538;-75
2020/12/15 11:49:53;;;;;;;15.97;9.50;;;8.80;99.90;;;;;;5083027;28;20516;-74
2020/12/15 11:52:19;;;;;;;14.77;9.43;;;8.80;99.90;;;;;;5083782;28;20185;-75
2020/12/15 11:54:45;;;;;;;17.67;9.80;;;8.80;99.90;;;;;;5082484;28;20190;-75
2020/12/15 11:57:11;;;;;;;15.10;10.50;;;8.80;99.90;;;;;;5084696;28;20562;-75
2020/12/15 11:59:37;;;;;;;14.87;9.77;;;8.80;99.90;;;;;;5081821;28;20213;-75
2020/12/15 12:02:04;;;;;;;14.57;8.80;;;8.90;99.90;;;;;;5083626;28;20194;-75
2020/12/15 12:04:29;;;;;;;18.23;10.30;;;8.90;99.90;;;;;;5092802;28;20426;-75
2020/12/15 12:06:55;;;;;;;18.30;9.23;;;8.90;99.90;;;;;;5084620;28;20422;-75
2020/12/15 12:09:20;;;;;;;13.33;10.37;;;9.00;99.90;;;;;;5081732;28;20719;-75
2020/12/15 12:11:47;;;;;;;17.13;9.50;;;9.10;99.90;;;;;;5087224;28;20253;-76
2020/12/15 12:14:13;;;;;;;21.33;9.63;;;9.20;99.90;;;;;;5081276;28;20317;-76
2020/12/15 12:16:38;;;;;;;15.43;9.03;;;9.20;99.90;;;;;;5085259;28;20979;-75
2020/12/15 12:19:04;;;;;;;17.13;9.97;;;9.30;99.90;;;;;;5084564;28;20195;-76
2020/12/15 12:21:34;;;;;;;22.23;9.70;;;9.40;99.90;;;;;;5085416;28;20213;-75
2020/12/15 12:23:59;;;;;;;19.80;10.60;;;9.40;99.90;;;;;;5082512;28;20309;-75
2020/12/15 12:26:25;;;;;;;24.70;11.70;;;9.40;99.90;;;;;;5084578;28;21001;-76
2020/12/15 12:28:52;;;;;;;22.20;11.13;;;9.50;99.90;;;;;;5079937;28;20211;-74
2020/12/15 12:31:18;;;;;;;21.50;10.63;;;9.60;99.90;;;;;;5084122;28;20202;-76
2020/12/15 12:33:43;;;;;;;16.70;10.30;;;9.50;99.90;;;;;;5082211;28;20444;-76
2020/12/15 12:36:09;;;;;;;14.47;10.07;;;9.50;99.90;;;;;;5081415;28;20184;-76
2020/12/15 12:38:34;;;;;;;22.77;11.20;;;9.40;99.90;;;;;;5084867;28;20184;-75
2020/12/15 12:41:00;;;;;;;19.03;10.80;;;9.40;99.90;;;;;;5093202;28;20288;-74
2020/12/15 12:43:25;;;;;;;18.17;10.33;;;9.40;99.90;;;;;;5089188;28;20193;-77
2020/12/15 12:45:51;;;;;;;14.10;10.60;;;9.40;99.90;;;;;;5088672;28;20187;-74